Time;durP1;ratioP1;P1;durP2;ratioP2;P2;SDS_P1;SDS_P2;PMS_P1;PMS_P2;Temp;Humidity;BMP_temperature;BMP_pressure;BME280_temperature;BME280_humidity;BME280_pressure;Samples;Min_cycle;Max_cycle;Signal;HPM_P1;HPM_P2
2021/06/01 00:01:33;;;;;;;3.65;2.22;;;13.10;99.90;;;;;;5049983;28;20408;-81
2021/06/01 00:04:00;;;;;;;6.25;2.28;;;13.10;99.90;;;;;;5049675;28;20369;-81
2021/06/01 00:06:27;;;;;;;4.97;1.93;;;13.20;99.90;;;;;;5055256;28;20803;-84
2021/06/01 00:08:54;;;;;;;5.70;2.10;;;13.20;99.90;;;;;;5069083;28;20402;-82
2021/06/01 00:11:22;;;;;;;3.60;1.67;;;13.40;99.90;;;;;;5067404;28;20401;-83
2021/06/01 00:13:49;;;;;;;4.05;1.67;;;13.70;99.90;;;;;;5056728;28;20486;-85
2021/06/01 00:16:16;;;;;;;4.22;1.77;;;13.70;99.90;;;;;;5050824;28;20380;-82
2021/06/01 00:18:45;;;;;;;3.88;1.60;;;13.70;99.90;;;;;;5049435;28;20387;-84
2021/06/01 00:21:13;;;;;;;4.72;1.98;;;13.90;99.90;;;;;;5066165;28;20414;-83
2021/06/01 00:23:40;;;;;;;5.22;1.50;;;14.20;99.90;;;;;;5068874;28;20473;-83
2021/06/01 00:26:10;;;;;;;6.15;1.73;;;14.30;99.90;;;;;;5058834;28;20466;-85
2021/06/01 00:28:40;;;;;;;5.93;1.80;;;14.30;99.90;;;;;;5050177;28;20403;-83
2021/06/01 00:31:07;;;;;;;3.70;1.58;;;14.20;99.90;;;;;;5049146;28;20490;-83
2021/06/01 00:33:34;;;;;;;3.37;1.47;;;14.20;99.90;;;;;;5068519;28;20393;-83
2021/06/01 00:36:01;;;;;;;5.87;1.83;;;14.10;99.90;;;;;;5066974;28;20390;-81
2021/06/01 00:38:28;;;;;;;3.33;1.80;;;14.00;99.90;;;;;;5069048;28;20369;-81
2021/06/01 00:40:56;;;;;;;4.47;1.55;;;14.00;99.90;;;;;;5068433;28;20389;-81
2021/06/01 00:43:24;;;;;;;5.28;2.00;;;14.00;99.90;;;;;;5061698;28;20387;-81
2021/06/01 00:45:51;;;;;;;4.78;1.40;;;14.00;99.90;;;;;;5049815;28;20391;-83
2021/06/01 00:48:18;;;;;;;2.75;1.60;;;14.10;99.90;;;;;;5048798;28;20368;-81
2021/06/01 00:50:45;;;;;;;2.58;1.48;;;14.20;99.90;;;;;;5049735;28;20406;-82
2021/06/01 00:53:12;;;;;;;4.35;1.90;;;14.30;99.90;;;;;;5048241;28;20455;-81
2021/06/01 00:55:39;;;;;;;3.78;1.20;;;14.30;99.90;;;;;;5048801;28;20438;-81
2021/06/01 00:58:08;;;;;;;5.30;1.33;;;14.40;99.90;;;;;;5053253;28;20391;-82
2021/06/01 01:03:37;;;;;;;2.97;1.20;;;14.40;99.90;;;;;;5018829;28;20393;-81
2021/06/01 01:06:14;;;;;;;4.93;1.30;;;14.40;99.90;;;;;;5060282;28;22318;-79
2021/06/01 01:08:54;;;;;;;2.00;1.60;;;14.40;99.90;;;;;;5066142;28;20463;-82
2021/06/01 01:11:33;;;;;;;3.97;1.10;;;14.50;99.90;;;;;;5067681;28;20469;-83
2021/06/01 01:14:29;;;;;;;2.80;1.15;;;14.50;99.90;;;;;;5054952;28;20520;-80
2021/06/01 01:16:59;;;;;;;2.57;1.00;;;14.50;99.90;;;;;;5077544;28;20383;-80
2021/06/01 01:19:52;;;;;;;3.40;1.02;;;14.50;99.90;;;;;;5063883;28;20854;-80
2021/06/01 01:22:21;;;;;;;1.25;0.90;;;14.50;99.90;;;;;;5032398;28;20367;-81
2021/06/01 01:25:03;;;;;;;3.42;1.17;;;14.60;99.90;;;;;;5057205;28;20390;-81
2021/06/01 01:27:36;;;;;;;3.42;1.00;;;14.60;99.90;;;;;;5067442;28;20440;-81
2021/06/01 01:30:08;;;;;;;2.63;1.00;;;14.60;99.90;;;;;;5069034;28;20450;-81
2021/06/01 01:33:11;;;;;;;1.73;0.70;;;14.70;99.90;;;;;;5055005;28;20408;-81
2021/06/01 01:35:40;;;;;;;4.68;0.85;;;14.70;99.90;;;;;;5043672;28;20397;-81
2021/06/01 01:38:08;;;;;;;1.30;0.97;;;14.70;99.90;;;;;;5068264;28;20425;-80
2021/06/01 01:40:38;;;;;;;2.45;0.70;;;14.80;99.90;;;;;;5049542;28;20405;-79
2021/06/01 01:43:10;;;;;;;3.08;0.60;;;14.80;99.90;;;;;;5056250;28;20374;-82
2021/06/01 01:45:40;;;;;;;1.80;0.70;;;14.90;99.90;;;;;;5068696;28;20480;-81
2021/06/01 01:51:21;;;;;;;2.30;0.82;;;15.00;99.90;;;;;;5067916;28;20472;-80
2021/06/01 01:53:54;;;;;;;1.73;1.10;;;15.00;99.90;;;;;;5052901;28;20467;-80
2021/06/01 01:56:29;;;;;;;1.35;1.25;;;15.00;99.90;;;;;;5066702;28;20420;-80
2021/06/01 01:58:57;;;;;;;5.95;1.13;;;15.00;99.90;;;;;;5053228;28;20407;-80
2021/06/01 02:01:24;;;;;;;2.35;0.68;;;15.10;99.90;;;;;;5069984;28;20408;-80
2021/06/01 02:03:53;;;;;;;1.38;0.57;;;15.10;99.90;;;;;;5070898;28;20382;-82
2021/06/01 02:06:20;;;;;;;1.30;0.50;;;15.20;99.90;;;;;;5068916;28;20492;-82
2021/06/01 02:08:47;;;;;;;1.92;0.60;;;15.20;99.90;;;;;;5066925;28;20444;-81
2021/06/01 02:11:14;;;;;;;1.52;0.70;;;15.30;99.90;;;;;;5069954;28;20394;-80
2021/06/01 02:13:49;;;;;;;1.63;0.60;;;15.40;99.90;;;;;;5070959;28;20420;-82
2021/06/01 02:16:17;;;;;;;3.90;0.40;;;15.60;99.90;;;;;;5065477;28;20399;-82
2021/06/01 02:18:45;;;;;;;1.95;0.50;;;15.70;99.90;;;;;;5062008;28;20384;-81
2021/06/01 02:21:46;;;;;;;0.73;0.50;;;15.70;99.90;;;;;;5068564;28;20401;-82
2021/06/01 02:24:22;;;;;;;1.33;0.52;;;15.70;99.90;;;;;;5059655;28;20389;-81
2021/06/01 02:26:55;;;;;;;1.93;0.97;;;15.70;99.90;;;;;;5060676;28;20437;-81
2021/06/01 02:29:35;;;;;;;1.33;0.40;;;15.70;99.90;;;;;;5058100;28;20411;-80
2021/06/01 02:32:05;;;;;;;1.40;1.30;;;15.60;99.90;;;;;;5061683;28;20390;-81
2021/06/01 02:34:39;;;;;;;1.88;0.80;;;15.60;99.90;;;;;;5063498;28;20562;-80
2021/06/01 02:37:07;;;;;;;0.60;0.60;;;15.70;99.90;;;;;;5064066;28;20725;-80
2021/06/01 02:39:36;;;;;;;2.10;0.60;;;15.70;99.90;;;;;;5056424;28;20401;-80
2021/06/01 02:42:05;;;;;;;0.90;0.52;;;15.80;99.90;;;;;;5053156;28;20459;-80
2021/06/01 02:44:32;;;;;;;2.30;0.70;;;15.90;99.90;;;;;;5065032;28;20481;-80
2021/06/01 02:47:00;;;;;;;1.10;0.63;;;15.80;99.90;;;;;;5070682;28;20370;-81
2021/06/01 02:49:28;;;;;;;1.60;0.57;;;15.80;99.90;;;;;;5056799;28;20400;-81
2021/06/01 02:51:56;;;;;;;0.73;0.65;;;15.80;99.90;;;;;;5050770;28;20462;-81
2021/06/01 02:54:24;;;;;;;1.40;0.65;;;15.80;99.90;;;;;;5065590;28;20890;-78
2021/06/01 02:56:52;;;;;;;1.83;0.60;;;15.90;99.70;;;;;;5051056;28;20399;-80
2021/06/01 02:59:20;;;;;;;1.95;0.90;;;15.90;99.90;;;;;;5053751;28;20747;-79
2021/06/01 03:01:49;;;;;;;2.25;0.80;;;15.90;98.10;;;;;;5063207;28;20375;-81
2021/06/01 03:04:16;;;;;;;1.40;0.90;;;15.90;97.70;;;;;;5065051;28;20390;-80
2021/06/01 03:06:45;;;;;;;1.80;0.70;;;15.80;98.70;;;;;;5067782;28;20415;-81
2021/06/01 03:09:12;;;;;;;1.90;0.70;;;15.80;99.40;;;;;;5068562;28;20932;-79
2021/06/01 03:11:41;;;;;;;2.35;0.82;;;15.80;99.60;;;;;;5066037;28;20390;-80
2021/06/01 03:14:08;;;;;;;1.70;0.60;;;15.90;99.90;;;;;;5051121;28;20395;-80
2021/06/01 03:16:35;;;;;;;1.30;0.90;;;15.90;99.90;;;;;;5064685;28;20419;-80
2021/06/01 03:19:02;;;;;;;0.77;0.77;;;15.80;99.90;;;;;;5061278;28;20394;-80
2021/06/01 03:21:30;;;;;;;0.85;0.60;;;15.80;99.90;;;;;;5068630;28;20877;-79
2021/06/01 03:23:57;;;;;;;0.80;0.80;;;15.80;99.90;;;;;;5069912;28;20873;-80
2021/06/01 03:26:24;;;;;;;1.20;0.80;;;16.00;99.90;;;;;;5069873;28;20792;-80
2021/06/01 03:28:51;;;;;;;1.15;0.70;;;16.10;99.90;;;;;;5068983;28;20958;-79
2021/06/01 03:31:19;;;;;;;2.10;0.70;;;16.30;99.90;;;;;;5049710;28;20724;-80
2021/06/01 03:33:46;;;;;;;1.90;0.70;;;16.40;99.90;;;;;;5048934;28;20378;-80
2021/06/01 03:36:13;;;;;;;1.17;0.70;;;16.60;99.90;;;;;;5049351;28;20420;-79
2021/06/01 03:38:40;;;;;;;2.30;0.80;;;16.70;99.90;;;;;;5048101;28;20411;-79
2021/06/01 03:41:07;;;;;;;3.47;0.73;;;16.70;99.90;;;;;;5063954;28;20398;-79
2021/06/01 03:43:34;;;;;;;0.68;0.68;;;16.80;99.40;;;;;;5068235;28;20731;-80
2021/06/01 03:46:01;;;;;;;3.90;0.82;;;16.70;99.90;;;;;;5057614;28;20457;-79
2021/06/01 03:48:28;;;;;;;1.42;0.73;;;16.60;99.70;;;;;;5059451;28;20390;-80
2021/06/01 03:50:55;;;;;;;1.75;0.75;;;16.40;99.90;;;;;;5060795;28;20521;-80
2021/06/01 03:53:22;;;;;;;0.85;0.50;;;16.30;99.90;;;;;;5060825;28;20461;-79
2021/06/01 03:55:49;;;;;;;1.48;0.80;;;16.30;99.90;;;;;;5055357;28;20448;-79
2021/06/01 03:58:16;;;;;;;1.23;0.80;;;16.30;99.90;;;;;;5058794;28;20399;-79
2021/06/01 04:00:43;;;;;;;2.70;0.75;;;16.40;99.90;;;;;;5054578;28;20472;-80
2021/06/01 04:03:10;;;;;;;1.30;0.80;;;16.50;99.80;;;;;;5060261;28;20397;-80
2021/06/01 04:05:37;;;;;;;1.80;0.70;;;16.60;99.60;;;;;;5060143;28;20434;-79
2021/06/01 04:08:06;;;;;;;1.10;0.70;;;16.70;99.60;;;;;;5061816;28;20405;-79
2021/06/01 04:10:34;;;;;;;2.90;0.70;;;16.80;99.90;;;;;;5063686;28;20587;-79
2021/06/01 04:13:00;;;;;;;1.88;1.02;;;16.90;99.10;;;;;;5055951;28;20548;-80
2021/06/01 04:15:28;;;;;;;2.65;1.00;;;17.00;98.40;;;;;;5067969;28;20428;-81
2021/06/01 04:17:55;;;;;;;2.85;1.00;;;17.00;98.40;;;;;;5066800;28;20513;-80
2021/06/01 04:20:22;;;;;;;1.02;0.73;;;17.00;97.80;;;;;;5063872;28;20394;-80
2021/06/01 04:22:49;;;;;;;4.70;0.88;;;17.00;98.20;;;;;;5063256;28;20768;-79
2021/06/01 04:25:17;;;;;;;1.90;0.90;;;16.90;98.50;;;;;;5062315;28;20395;-79
2021/06/01 04:27:45;;;;;;;2.30;0.95;;;16.80;98.20;;;;;;5066155;28;20405;-79
2021/06/01 04:30:13;;;;;;;2.45;0.88;;;16.80;98.30;;;;;;5066777;28;20927;-79
2021/06/01 04:32:44;;;;;;;1.90;0.70;;;16.80;98.90;;;;;;5048169;28;20423;-80
2021/06/01 04:35:12;;;;;;;1.20;0.70;;;16.80;98.90;;;;;;5054308;28;20406;-80
2021/06/01 04:37:39;;;;;;;0.73;0.73;;;16.80;99.20;;;;;;5059193;28;20396;-80
2021/06/01 04:40:10;;;;;;;1.13;0.73;;;16.70;99.50;;;;;;5061400;28;20386;-79
2021/06/01 04:42:37;;;;;;;3.13;0.90;;;16.60;99.70;;;;;;5066555;28;21056;-80
2021/06/01 04:45:04;;;;;;;2.97;1.07;;;16.50;99.90;;;;;;5068499;28;20386;-80
2021/06/01 04:47:31;;;;;;;1.52;1.00;;;16.40;99.90;;;;;;5068246;28;20410;-79
2021/06/01 04:49:58;;;;;;;1.92;0.80;;;16.40;99.90;;;;;;5063301;28;20475;-81
2021/06/01 04:52:25;;;;;;;2.40;0.75;;;16.30;99.90;;;;;;5067140;28;20477;-81
2021/06/01 04:54:52;;;;;;;1.30;0.60;;;16.30;99.90;;;;;;5067319;28;20378;-79
2021/06/01 04:57:19;;;;;;;2.42;0.80;;;16.30;99.90;;;;;;5065887;28;20370;-79
2021/06/01 04:59:46;;;;;;;2.00;0.63;;;16.20;99.90;;;;;;5057149;28;20401;-79
2021/06/01 05:02:13;;;;;;;3.30;0.80;;;16.20;99.90;;;;;;5061192;28;20503;-79
2021/06/01 05:04:40;;;;;;;3.08;1.27;;;16.10;99.90;;;;;;5057406;28;20988;-79
2021/06/01 05:07:08;;;;;;;1.40;0.82;;;16.00;99.90;;;;;;5065748;28;20916;-80
2021/06/01 05:09:35;;;;;;;1.80;0.70;;;15.90;99.90;;;;;;5064550;28;20924;-80
2021/06/01 05:12:02;;;;;;;1.58;1.10;;;15.80;99.90;;;;;;5054575;28;21229;-79
2021/06/01 05:14:29;;;;;;;1.35;0.75;;;15.70;99.90;;;;;;5064325;28;20392;-79
2021/06/01 05:16:56;;;;;;;1.00;0.82;;;15.60;99.90;;;;;;5064299;28;20388;-79
2021/06/01 05:19:23;;;;;;;0.80;0.80;;;15.60;99.90;;;;;;5052013;28;20394;-79
2021/06/01 05:21:50;;;;;;;1.80;1.00;;;15.60;99.90;;;;;;5068499;28;20426;-79
2021/06/01 05:24:17;;;;;;;1.70;0.85;;;15.50;99.90;;;;;;5059560;28;20478;-79
2021/06/01 05:26:44;;;;;;;0.80;0.80;;;15.60;99.90;;;;;;5066774;28;20473;-79
2021/06/01 05:29:11;;;;;;;1.42;0.80;;;15.70;99.90;;;;;;5060320;28;20865;-79
2021/06/01 05:31:59;;;;;;;0.90;0.80;;;15.70;99.90;;;;;;5056796;28;20948;-79
2021/06/01 05:34:29;;;;;;;3.50;0.88;;;15.60;99.90;;;;;;5066499;28;20844;-79
2021/06/01 05:36:56;;;;;;;1.58;0.85;;;15.50;99.90;;;;;;5059487;28;20402;-79
2021/06/01 05:39:23;;;;;;;2.70;1.00;;;15.30;99.90;;;;;;5067468;28;20807;-79
2021/06/01 05:41:50;;;;;;;1.20;0.90;;;15.30;99.90;;;;;;5055893;28;20396;-80
2021/06/01 05:44:17;;;;;;;3.67;1.00;;;15.20;99.90;;;;;;5062736;28;20390;-79
2021/06/01 05:46:44;;;;;;;2.27;0.80;;;15.20;99.90;;;;;;5068107;28;20479;-79
2021/06/01 05:49:11;;;;;;;1.33;0.87;;;15.20;99.90;;;;;;5057320;28;20759;-79
2021/06/01 05:51:39;;;;;;;2.70;0.90;;;15.10;99.90;;;;;;5056371;28;20402;-80
2021/06/01 05:54:07;;;;;;;1.87;1.20;;;15.10;99.90;;;;;;5063640;28;20378;-79
2021/06/01 05:56:35;;;;;;;2.58;2.30;;;15.10;99.90;;;;;;5067414;28;20398;-79
2021/06/01 05:59:04;;;;;;;4.03;3.63;;;15.00;99.90;;;;;;5062314;28;20395;-80
2021/06/01 06:01:31;;;;;;;4.68;4.30;;;14.90;99.90;;;;;;5058081;28;20408;-79
2021/06/01 06:03:58;;;;;;;7.03;6.47;;;14.90;99.90;;;;;;5064326;28;20927;-79
2021/06/01 06:06:25;;;;;;;3.95;3.40;;;14.80;99.90;;;;;;5057185;28;20382;-79
2021/06/01 06:08:52;;;;;;;3.80;3.42;;;14.80;99.90;;;;;;5061235;28;20408;-79
2021/06/01 06:11:19;;;;;;;3.40;1.80;;;14.80;99.90;;;;;;5060574;28;20413;-79
2021/06/01 06:13:46;;;;;;;2.80;1.90;;;14.80;99.90;;;;;;5063947;28;20392;-79
2021/06/01 06:16:18;;;;;;;4.90;1.50;;;14.70;99.90;;;;;;5057440;28;20387;-79
2021/06/01 06:19:03;;;;;;;2.90;1.20;;;14.70;99.90;;;;;;5058295;28;20869;-79
2021/06/01 06:21:30;;;;;;;3.42;1.65;;;14.70;99.90;;;;;;5065828;28;20763;-80
2021/06/01 06:23:57;;;;;;;2.58;1.50;;;14.70;99.90;;;;;;5060444;28;20455;-79
2021/06/01 06:26:25;;;;;;;2.00;1.50;;;14.70;99.90;;;;;;5060725;28;20722;-79
2021/06/01 06:28:52;;;;;;;1.20;1.10;;;14.70;99.90;;;;;;5069782;28;20434;-80
2021/06/01 06:31:19;;;;;;;1.58;0.93;;;14.70;99.90;;;;;;5068267;28;20496;-80
2021/06/01 06:33:46;;;;;;;1.40;1.23;;;14.60;99.90;;;;;;5067311;28;20386;-78
2021/06/01 06:36:13;;;;;;;2.47;1.20;;;14.60;99.90;;;;;;5057659;28;20393;-79
2021/06/01 06:38:41;;;;;;;3.13;1.42;;;14.50;99.90;;;;;;5070946;28;20366;-79
2021/06/01 06:41:15;;;;;;;3.72;1.60;;;14.50;99.90;;;;;;5059315;28;20747;-80
2021/06/01 06:43:52;;;;;;;4.45;1.58;;;14.40;99.90;;;;;;5049172;28;20801;-80
2021/06/01 06:46:26;;;;;;;4.65;2.42;;;14.40;99.90;;;;;;5050352;28;20376;-80
2021/06/01 06:48:53;;;;;;;4.07;3.00;;;14.30;99.90;;;;;;5050643;28;20432;-80
2021/06/01 06:51:22;;;;;;;6.60;3.50;;;14.30;99.90;;;;;;5061602;28;20490;-80
2021/06/01 06:53:56;;;;;;;5.43;3.35;;;14.10;99.90;;;;;;5064273;28;20421;-80
2021/06/01 06:56:29;;;;;;;4.22;3.10;;;14.00;99.90;;;;;;5064759;28;20746;-80
2021/06/01 06:58:58;;;;;;;4.45;3.17;;;13.90;99.90;;;;;;5068020;28;20374;-80
2021/06/01 07:01:27;;;;;;;4.88;3.40;;;13.70;99.90;;;;;;5050515;28;20409;-80
2021/06/01 07:03:55;;;;;;;6.55;3.30;;;13.60;99.90;;;;;;5048880;28;20407;-78
2021/06/01 07:06:23;;;;;;;7.22;3.58;;;13.60;99.90;;;;;;5060912;28;20408;-80
2021/06/01 07:08:51;;;;;;;5.28;3.70;;;13.50;99.90;;;;;;5053491;28;20383;-80
2021/06/01 07:11:18;;;;;;;8.07;3.80;;;13.50;99.90;;;;;;5051424;28;20381;-80
2021/06/01 07:13:49;;;;;;;5.40;3.60;;;13.40;99.90;;;;;;5063886;28;20393;-80
2021/06/01 07:16:18;;;;;;;5.33;3.70;;;13.40;99.90;;;;;;5066724;28;20421;-81
2021/06/01 07:18:46;;;;;;;5.50;3.90;;;13.40;99.90;;;;;;5052487;28;20383;-80
2021/06/01 07:21:14;;;;;;;7.63;3.75;;;13.20;99.90;;;;;;5066449;28;20401;-79
2021/06/01 07:23:41;;;;;;;5.50;3.50;;;13.20;99.90;;;;;;5068691;28;20389;-79
2021/06/01 07:26:10;;;;;;;4.80;3.47;;;13.10;99.90;;;;;;5064857;28;20407;-79
2021/06/01 07:28:38;;;;;;;5.97;3.42;;;13.10;99.90;;;;;;5066076;28;20405;-79
2021/06/01 07:31:06;;;;;;;3.97;3.58;;;13.00;99.90;;;;;;5067746;28;20421;-80
2021/06/01 07:33:34;;;;;;;5.60;3.22;;;12.90;99.90;;;;;;5066808;28;20412;-80
2021/06/01 07:36:03;;;;;;;5.60;3.47;;;12.90;99.90;;;;;;5056839;28;20859;-80
2021/06/01 07:38:30;;;;;;;6.07;3.60;;;12.80;99.90;;;;;;5055287;28;20370;-80
2021/06/01 07:40:58;;;;;;;6.20;3.35;;;12.80;99.90;;;;;;5058666;28;20398;-80
2021/06/01 07:43:25;;;;;;;8.60;4.07;;;12.70;99.90;;;;;;5065181;28;20539;-80
2021/06/01 07:45:52;;;;;;;7.05;3.67;;;12.60;99.90;;;;;;5061966;28;20792;-79
2021/06/01 07:48:19;;;;;;;5.53;3.30;;;12.60;99.90;;;;;;5061109;28;20394;-79
2021/06/01 07:50:46;;;;;;;4.70;3.13;;;12.50;99.90;;;;;;5065289;28;20413;-79
2021/06/01 07:53:13;;;;;;;6.70;3.67;;;12.50;99.90;;;;;;5062270;28;20376;-79
2021/06/01 07:55:40;;;;;;;5.55;4.22;;;12.40;99.90;;;;;;5061176;28;20404;-81
2021/06/01 07:58:07;;;;;;;5.90;3.60;;;12.30;99.90;;;;;;5067059;28;20386;-80
2021/06/01 08:00:34;;;;;;;12.00;10.00;;;12.30;99.90;;;;;;5068093;28;20450;-80
2021/06/01 08:03:01;;;;;;;12.57;10.80;;;12.30;99.90;;;;;;5066875;28;20460;-80
2021/06/01 08:05:30;;;;;;;13.88;10.52;;;12.20;99.90;;;;;;5068634;28;20401;-80
2021/06/01 08:07:57;;;;;;;10.25;7.45;;;12.20;99.90;;;;;;5059725;28;20734;-80
2021/06/01 08:10:27;;;;;;;7.55;5.95;;;12.20;99.90;;;;;;5056501;28;20411;-79
2021/06/01 08:12:55;;;;;;;9.50;5.60;;;12.30;99.90;;;;;;5068265;28;20405;-80
2021/06/01 08:15:24;;;;;;;3.72;3.05;;;12.30;99.90;;;;;;5066758;28;20464;-79
2021/06/01 08:17:56;;;;;;;5.50;3.00;;;12.30;99.90;;;;;;5055786;28;20421;-80
2021/06/01 08:20:45;;;;;;;3.15;2.60;;;12.30;99.90;;;;;;5064635;28;20393;-80
2021/06/01 08:23:11;;;;;;;4.00;2.50;;;12.40;99.90;;;;;;5064536;28;20392;-81
2021/06/01 08:25:38;;;;;;;4.72;2.20;;;12.60;99.90;;;;;;5059206;28;20461;-81
2021/06/01 08:28:05;;;;;;;3.95;2.38;;;12.80;99.90;;;;;;5068890;28;20410;-81
2021/06/01 08:30:32;;;;;;;3.55;2.35;;;12.90;99.90;;;;;;5067528;28;20398;-81
2021/06/01 08:32:59;;;;;;;4.67;2.43;;;13.00;99.90;;;;;;5069207;28;20427;-81
2021/06/01 08:35:27;;;;;;;3.67;2.75;;;13.10;99.90;;;;;;5069229;28;20463;-81
2021/06/01 08:37:54;;;;;;;7.15;3.88;;;13.10;99.90;;;;;;5053978;28;20379;-80
2021/06/01 08:40:21;;;;;;;4.82;3.92;;;13.10;99.90;;;;;;5056931;28;20439;-80
2021/06/01 08:42:48;;;;;;;6.40;3.92;;;13.10;99.90;;;;;;5062647;28;20387;-80
2021/06/01 08:45:16;;;;;;;6.22;3.88;;;13.00;99.90;;;;;;5032697;28;20388;-80
2021/06/01 08:47:43;;;;;;;5.53;4.03;;;12.90;99.90;;;;;;5049565;28;20391;-80
2021/06/01 08:50:15;;;;;;;6.25;4.55;;;12.90;99.90;;;;;;5053535;28;20413;-80
2021/06/01 08:52:42;;;;;;;4.80;3.97;;;12.80;99.90;;;;;;5047028;28;20831;-81
2021/06/01 08:55:11;;;;;;;8.00;4.20;;;12.80;99.90;;;;;;5047533;28;20383;-81
2021/06/01 08:57:41;;;;;;;5.05;3.50;;;12.80;99.90;;;;;;5050323;28;20379;-81
2021/06/01 09:00:11;;;;;;;5.50;3.80;;;12.70;99.90;;;;;;5052870;28;20384;-81
2021/06/01 09:02:38;;;;;;;5.13;3.72;;;12.60;99.90;;;;;;5052916;28;20708;-81
2021/06/01 09:05:08;;;;;;;3.65;3.25;;;12.60;99.90;;;;;;5052963;28;20398;-81
2021/06/01 09:08:02;;;;;;;3.80;2.53;;;12.60;99.90;;;;;;5052522;28;20415;-80
2021/06/01 09:13:40;;;;;;;4.05;3.00;;;12.60;99.90;;;;;;5060158;28;20378;-80
2021/06/01 09:21:46;;;;;;;6.88;3.55;;;12.70;99.90;;;;;;5052680;28;20399;-80
2021/06/01 09:24:15;;;;;;;7.07;4.00;;;12.70;99.90;;;;;;5053162;28;20754;-80
2021/06/01 09:29:29;;;;;;;5.63;4.00;;;12.70;99.90;;;;;;5071864;28;20397;-80
2021/06/01 09:32:19;;;;;;;5.07;3.70;;;12.60;99.90;;;;;;5072099;28;20381;-80
2021/06/01 09:34:50;;;;;;;6.63;4.55;;;12.50;99.90;;;;;;5071383;28;20398;-80
2021/06/01 09:37:22;;;;;;;7.70;4.00;;;12.30;99.90;;;;;;5072286;28;20413;-80
2021/06/01 09:40:07;;;;;;;7.75;4.57;;;12.30;99.90;;;;;;5063456;28;20464;-80
2021/06/01 09:42:36;;;;;;;9.15;6.32;;;12.10;99.90;;;;;;5050756;28;20391;-80
2021/06/01 09:45:07;;;;;;;8.32;7.03;;;12.10;99.90;;;;;;5068575;28;20856;-80
2021/06/01 09:47:46;;;;;;;9.95;7.45;;;12.00;99.90;;;;;;5071762;28;20476;-80
2021/06/01 09:53:09;;;;;;;9.48;7.22;;;11.60;99.90;;;;;;5071836;28;20999;-80
2021/06/01 09:55:43;;;;;;;8.98;6.60;;;11.60;99.90;;;;;;5071943;28;20378;-80
2021/06/01 09:58:16;;;;;;;8.57;6.82;;;11.50;99.90;;;;;;5071762;28;21782;-80
2021/06/01 10:00:46;;;;;;;9.38;6.68;;;11.50;99.90;;;;;;5071712;28;20507;-80
2021/06/01 10:03:20;;;;;;;10.75;7.10;;;11.40;99.90;;;;;;5070710;28;22008;-79
2021/06/01 10:05:54;;;;;;;9.57;6.95;;;11.40;99.90;;;;;;5055906;28;20410;-79
2021/06/01 10:08:24;;;;;;;6.83;5.47;;;11.40;99.90;;;;;;5058539;28;20380;-79
2021/06/01 10:10:58;;;;;;;10.40;5.72;;;11.40;99.90;;;;;;5051370;28;20411;-80
2021/06/01 10:13:28;;;;;;;7.13;4.20;;;11.40;99.90;;;;;;5051569;28;20392;-80
2021/06/01 10:15:57;;;;;;;8.23;3.90;;;11.40;99.90;;;;;;5052657;28;20490;-80
2021/06/01 10:18:31;;;;;;;5.15;4.30;;;11.40;99.90;;;;;;5065130;28;20378;-80
2021/06/01 10:21:06;;;;;;;6.03;4.50;;;11.30;99.90;;;;;;5058484;28;20875;-80
2021/06/01 10:23:40;;;;;;;5.40;4.65;;;11.20;99.90;;;;;;5057062;28;20388;-80
2021/06/01 10:26:10;;;;;;;7.53;4.68;;;11.10;99.90;;;;;;5060261;28;20396;-80
2021/06/01 10:28:41;;;;;;;6.60;5.10;;;10.90;99.90;;;;;;5051364;28;20386;-80
2021/06/01 10:31:11;;;;;;;7.10;5.18;;;10.90;99.90;;;;;;5051417;28;20391;-80
2021/06/01 10:33:43;;;;;;;6.93;4.65;;;10.80;99.90;;;;;;5051526;28;20387;-79
2021/06/01 10:50:23;;;;;;;11.60;8.75;;;10.90;99.90;;;;;;5051763;28;20415;-79
2021/06/01 10:53:08;;;;;;;11.57;8.50;;;10.80;99.90;;;;;;5050790;28;20376;-79
2021/06/01 10:58:50;;;;;;;7.88;7.07;;;10.70;99.90;;;;;;5050580;28;20360;-79
2021/06/01 11:04:17;;;;;;;10.02;8.60;;;10.60;99.90;;;;;;5051019;28;20504;-79
2021/06/01 11:09:38;;;;;;;7.80;6.27;;;10.40;99.90;;;;;;5050448;28;20450;-80
2021/06/01 11:12:17;;;;;;;6.32;5.72;;;10.40;99.90;;;;;;5055572;28;20382;-80
2021/06/01 11:14:46;;;;;;;9.02;7.20;;;10.50;99.90;;;;;;5066769;28;20382;-79
2021/06/01 11:17:14;;;;;;;10.05;8.15;;;10.50;99.90;;;;;;5067128;28;20439;-79
2021/06/01 11:20:03;;;;;;;11.15;7.70;;;10.50;99.90;;;;;;5062498;28;20384;-79
2021/06/01 11:23:06;;;;;;;11.70;8.45;;;10.50;99.90;;;;;;5053247;28;20387;-80
2021/06/01 11:33:36;;;;;;;7.20;6.05;;;10.30;99.90;;;;;;5062682;28;20401;-80
2021/06/01 11:36:07;;;;;;;6.85;5.88;;;10.30;99.90;;;;;;5069400;28;20901;-80
2021/06/01 11:38:48;;;;;;;8.05;5.85;;;10.30;99.90;;;;;;5069754;28;20369;-81
2021/06/01 11:43:53;;;;;;;5.43;4.47;;;10.30;99.90;;;;;;5063583;28;20483;-81
2021/06/01 11:46:38;;;;;;;5.65;5.03;;;10.30;99.90;;;;;;5063572;28;20459;-80
2021/06/01 11:51:50;;;;;;;8.65;5.93;;;10.20;99.90;;;;;;5057575;28;20390;-80
2021/06/01 11:54:17;;;;;;;7.13;5.57;;;10.20;99.90;;;;;;5062393;28;20461;-80
2021/06/01 11:57:05;;;;;;;6.67;5.13;;;10.20;99.90;;;;;;5060778;28;20394;-80
2021/06/01 12:21:21;;;;;;;8.52;6.32;;;10.10;99.90;;;;;;5053333;28;20392;-80
2021/06/01 12:24:08;;;;;;;7.15;5.78;;;10.10;99.90;;;;;;5053692;28;20394;-80
2021/06/01 12:32:14;;;;;;;6.05;4.93;;;10.20;99.90;;;;;;5059134;28;21304;-80
2021/06/01 12:41:41;;;;;;;6.40;5.20;;;10.20;99.90;;;;;;5055176;28;20374;-80
2021/06/01 12:43:06;;;;;;;11.70;8.65;;;10.10;99.90;;;;;;5061350;28;20376;-80
2021/06/01 13:40:03;;;;;;;8.65;4.90;;;10.40;99.90;;;;;;5066024;28;20404;-79
2021/06/01 13:55:41;;;;;;;6.68;5.00;;;10.50;99.90;;;;;;5070579;28;20406;-79
2021/06/01 14:15:23;;;;;;;7.60;5.60;;;10.10;99.90;;;;;;5065818;28;20408;-79
2021/06/01 15:49:22;;;;;;;2.75;2.50;;;9.80;99.90;;;;;;5007333;28;20459;-79
2021/06/01 16:21:24;;;;;;;2.90;2.17;;;9.30;99.90;;;;;;5062104;28;20422;-79
2021/06/01 16:31:47;;;;;;;2.08;1.58;;;9.30;99.90;;;;;;5068267;28;20405;-79
2021/06/01 17:04:46;;;;;;;2.88;1.70;;;9.20;99.90;;;;;;5053649;28;20750;-79
2021/06/01 17:13:06;;;;;;;2.42;1.20;;;9.30;99.90;;;;;;5067409;28;20416;-79
2021/06/01 17:15:34;;;;;;;2.53;1.40;;;9.30;99.90;;;;;;5065305;28;20433;-78
2021/06/01 17:19:12;;;;;;;1.70;1.30;;;9.30;99.90;;;;;;5068691;28;20378;-79
2021/06/01 17:24:12;;;;;;;1.83;0.80;;;9.40;99.90;;;;;;5071865;28;20432;-79
2021/06/01 17:35:05;;;;;;;1.20;0.70;;;9.70;99.90;;;;;;5014270;28;20374;-78
2021/06/01 17:37:34;;;;;;;1.17;0.70;;;9.80;99.90;;;;;;5069075;28;20488;-78
2021/06/01 17:40:02;;;;;;;1.65;0.80;;;9.80;99.90;;;;;;5068403;28;20394;-78
2021/06/01 17:42:32;;;;;;;1.05;0.60;;;9.80;99.90;;;;;;5063947;28;20903;-79
2021/06/01 17:45:03;;;;;;;1.73;0.70;;;9.80;99.90;;;;;;5070768;28;20378;-78
2021/06/01 17:47:35;;;;;;;1.48;0.80;;;9.80;99.90;;;;;;5056148;28;20423;-78
2021/06/01 17:50:04;;;;;;;2.65;0.80;;;9.80;99.90;;;;;;5053082;28;20399;-79
2021/06/01 17:52:33;;;;;;;1.40;0.80;;;9.70;99.90;;;;;;5069997;28;20400;-78
2021/06/01 17:55:01;;;;;;;3.67;0.90;;;9.70;99.90;;;;;;5055853;28;20884;-78
2021/06/01 17:57:29;;;;;;;2.10;0.85;;;9.60;99.90;;;;;;5067927;28;20447;-78
2021/06/01 17:59:56;;;;;;;2.40;1.00;;;9.60;99.90;;;;;;5066031;28;20433;-79
2021/06/01 18:02:24;;;;;;;2.17;1.00;;;9.50;99.90;;;;;;5070202;28;20480;-79
2021/06/01 18:04:54;;;;;;;2.47;1.10;;;9.50;99.90;;;;;;5065092;28;20813;-79
2021/06/01 18:07:35;;;;;;;2.20;1.30;;;9.50;99.90;;;;;;5070100;28;20385;-78
2021/06/01 18:10:42;;;;;;;2.90;1.17;;;9.50;99.90;;;;;;5069358;28;20414;-78
2021/06/01 18:13:38;;;;;;;2.88;1.20;;;9.40;99.90;;;;;;5067404;28;20430;-77
2021/06/01 18:52:34;;;;;;;2.20;2.00;;;8.70;99.90;;;;;;5056756;28;20402;-78
2021/06/01 19:00:54;;;;;;;3.13;1.80;;;8.40;99.90;;;;;;5068869;28;20883;-78
2021/06/01 19:06:14;;;;;;;1.73;1.20;;;8.30;99.90;;;;;;5070305;28;20405;-78
2021/06/01 19:25:42;;;;;;;3.17;2.00;;;8.10;99.90;;;;;;5061751;28;20413;-78
2021/06/01 19:50:27;;;;;;;2.03;1.13;;;8.10;99.90;;;;;;5056048;28;20430;-78
2021/06/01 19:52:57;;;;;;;2.90;1.35;;;8.20;99.90;;;;;;5053284;28;20387;-78
2021/06/01 19:55:27;;;;;;;2.17;1.17;;;8.20;99.90;;;;;;5069935;28;20437;-78
2021/06/01 19:57:55;;;;;;;2.90;1.27;;;8.20;99.90;;;;;;5068130;28;20409;-78
2021/06/01 20:00:24;;;;;;;1.67;1.40;;;8.20;99.90;;;;;;5062315;28;20914;-78
2021/06/01 20:02:51;;;;;;;2.40;1.42;;;8.10;99.90;;;;;;5052758;28;20386;-78
2021/06/01 20:05:20;;;;;;;4.22;2.33;;;8.10;99.90;;;;;;5055838;28;20406;-78
2021/06/01 20:07:47;;;;;;;6.35;5.18;;;8.10;99.90;;;;;;5066889;28;20398;-79
2021/06/01 20:10:16;;;;;;;4.43;3.58;;;8.00;99.90;;;;;;5065895;28;20413;-78
2021/06/01 20:12:44;;;;;;;3.42;2.03;;;7.90;99.90;;;;;;5057600;28;20882;-78
2021/06/01 20:15:13;;;;;;;2.78;1.60;;;7.80;99.90;;;;;;5058667;28;20931;-78
2021/06/01 20:17:45;;;;;;;2.87;1.70;;;7.70;99.90;;;;;;5053778;28;20490;-78
2021/06/01 20:20:17;;;;;;;2.70;2.03;;;7.80;99.90;;;;;;5055991;28;20386;-78